Date,TemperatureHighF,TemperatureAvgF,TemperatureLowF,DewpointHighF,DewpointAvgF,DewpointLowF,HumidityHigh,HumidityAvg,HumidityLow,PressureMaxIn,PressureMinIn,WindSpeedMaxMPH,WindSpeedAvgMPH,GustSpeedMaxMPH,PrecipitationSumIn
2012-1-1,72,60,50,62,54,48,95,82,64,30.19,30.08,1,0,7,0.02
2012-1-2,63,59,55,59,48,36,90,69,46,30.15,30.01,7,3,23,0.03
2012-1-3,57,46,35,38,28,21,61,50,40,30.32,30.11,5,2,30,0.00
2012-1-4,51,40,31,25,21,17,66,48,28,30.36,30.22,1,0,7,0.00
2012-1-5,64,48,33,52,40,23,89,73,63,30.24,30.11,1,0,7,0.00
2012-1-6,67,55,44,59,48,40,93,80,66,30.15,30.04,1,0,9,0.01
2012-1-7,69,59,50,60,53,46,93,80,62,30.11,30.02,0,0,4,0.00
2012-1-8,71,59,49,58,51,45,93,75,54,30.16,30.07,1,0,9,0.00
2012-1-9,74,63,54,62,55,50,91,76,58,30.13,30.01,1,0,10,0.00
2012-1-10,76,64,56,63,56,52,93,75,51,30.02,29.86,2,0,13,0.00
2012-1-11,65,64,62,60,58,56,86,82,79,29.88,29.72,7,2,18,0.03
2012-1-12,72,64,56,64,59,53,94,82,68,29.90,29.75,1,0,11,0.01
2012-1-13,66,55,50,60,44,38,82,65,55,30.16,29.90,6,2,22,0.00
2012-1-14,55,49,39,45,30,22,70,51,29,30.29,30.13,5,1,18,0.00
2012-1-15,63,48,36,51,38,30,88,69,50,30.36,30.25,6,1,17,0.00
2012-1-16,70,57,41,51,45,36,82,66,49,30.36,30.22,3,0,16,0.00
2012-1-17,72,59,48,58,49,42,88,71,53,30.24,30.06,2,0,14,0.00
2012-1-18,72,61,52,64,57,47,92,86,75,30.06,29.93,4,0,18,0.37
2012-1-19,67,56,47,58,45,34,90,71,29,30.10,29.96,2,0,10,0.01
2012-1-20,73,58,45,57,48,39,90,71,45,30.10,30.02,3,0,14,0.01
2012-1-21,74,63,54,60,54,48,89,75,55,30.06,29.96,3,0,14,0.00
2012-1-22,74,64,54,66,57,51,93,81,64,30.05,29.97,1,0,10,0.00
2012-1-23,76,66,59,66,60,55,90,80,64,30.08,29.98,2,0,11,0.00
2012-1-24,75,66,58,66,60,55,94,81,69,30.09,30.00,2,0,10,0.01
2012-1-25,78,69,63,67,62,58,93,80,58,30.08,29.99,4,0,17,0.00
2012-1-26,78,70,62,68,63,59,94,80,62,30.00,29.86,4,1,22,0.01
2012-1-27,70,66,54,66,60,50,93,84,74,30.00,29.83,5,1,16,0.62
2012-1-28,65,57,50,58,51,47,94,79,64,30.11,29.98,7,1,18,0.00
2012-1-29,70,59,48,52,48,44,89,70,43,30.23,30.10,4,1,13,0.00
2012-1-30,72,60,50,49,43,40,80,56,33,30.29,30.18,1,0,12,0.00
2012-1-31,76,64,54,55,50,45,79,62,41,30.27,30.14,3,0,19,0.00
2012-2-1,76,65,57,61,56,52,85,73,54,30.18,30.06,3,0,12,0.00
2012-2-2,75,66,56,63,57,53,91,75,53,30.10,30.01,4,0,13,0.00
2012-2-3,77,69,63,64,60,58,85,72,55,30.14,30.06,2,0,15,0.00
2012-2-4,80,70,64,64,60,58,85,72,51,30.10,29.97,4,0,19,0.00
2012-2-5,77,70,64,68,63,59,90,80,66,30.00,29.92,0,0,6,0.00
2012-2-6,80,70,65,68,64,60,91,82,60,30.00,29.91,4,0,12,0.14
2012-2-7,70,67,63,65,64,60,93,89,82,30.00,29.92,1,0,11,0.01
2012-2-8,70,63,56,60,54,51,91,75,51,30.05,29.95,5,1,16,0.00
2012-2-9,72,63,57,56,50,45,80,63,51,30.08,29.99,2,0,11,0.00
2012-2-10,77,65,57,65,58,51,88,78,66,30.02,29.84,4,0,12,0.15
2012-2-11,64,58,51,60,48,30,89,70,45,30.08,29.80,7,4,27,0.02
2012-2-12,51,42,34,30,21,11,64,44,30,30.30,30.09,5,1,22,0.00
2012-2-13,60,46,33,37,30,24,74,56,35,30.20,30.02,1,0,9,0.00
2012-2-14,73,60,44,59,50,34,84,70,60,30.03,29.95,4,1,15,0.00
2012-2-15,78,69,62,64,59,55,85,70,52,30.12,30.00,3,0,13,0.00
2012-2-16,80,70,61,67,61,56,87,76,59,30.09,30.00,4,0,15,0.00
2012-2-17,72,68,66,69,65,60,93,90,83,30.00,29.91,1,0,7,0.44
2012-2-18,75,69,64,68,65,62,95,88,74,29.94,29.79,2,0,12,0.00
2012-2-19,78,70,63,72,65,55,93,84,72,29.88,29.75,3,1,17,0.06
2012-2-20,68,61,54,55,50,45,78,68,49,30.12,29.88,6,2,18,0.00
2012-2-21,75,62,52,59,53,46,87,73,56,30.14,30.03,3,0,15,0.00
2012-2-22,76,67,58,68,61,54,91,83,71,30.02,29.84,4,0,15,0.03
2012-2-23,79,73,69,71,68,66,93,87,73,29.89,29.79,1,0,16,0.00
2012-2-24,81,73,67,72,67,64,95,84,63,29.94,29.83,2,0,20,0.01
2012-2-25,73,65,60,69,43,33,87,47,28,30.16,29.93,5,1,16,0.00
2012-2-26,70,62,54,61,49,33,80,62,38,30.20,30.11,4,0,14,0.03
2012-2-27,83,73,66,69,65,61,89,77,60,30.21,30.11,1,0,11,0.00
2012-2-28,82,73,66,70,65,61,92,77,57,30.19,30.10,0,0,9,0.00
2012-2-29,82,72,65,70,65,61,91,79,60,30.15,30.02,1,0,13,0.00
2012-3-1,78,71,65,71,66,60,92,84,74,30.04,29.94,0,0,7,0.00
2012-3-2,81,73,67,70,67,64,92,81,63,29.97,29.85,2,0,14,0.00
2012-3-3,83,75,66,72,68,62,93,80,64,29.85,29.72,4,1,24,0.00
2012-3-4,75,63,50,71,47,32,86,59,35,30.14,29.61,7,3,29,0.13
2012-3-5,70,57,44,46,42,34,79,59,39,30.28,30.14,3,0,12,0.00
2012-3-6,79,64,50,54,50,44,86,63,38,30.31,30.22,3,0,20,0.00
2012-3-7,81,70,60,58,55,52,77,60,39,30.29,30.17,2,0,17,0.00
2012-3-8,83,72,63,67,62,58,90,71,47,30.20,30.06,3,0,16,0.00
2012-3-9,79,72,68,69,66,63,88,81,70,30.13,30.04,3,0,13,0.20
2012-3-10,79,69,63,66,62,60,92,80,57,30.14,30.03,2,0,14,0.01
2012-3-11,82,72,65,69,64,60,89,77,55,30.19,30.09,2,0,13,0.23
2012-3-12,82,73,66,65,60,57,83,67,48,30.20,30.10,2,0,15,0.00
2012-3-13,81,70,61,64,60,56,87,71,51,30.17,30.08,4,0,14,0.00
2012-3-14,81,69,59,64,60,55,91,75,54,30.16,30.06,5,0,14,0.00
2012-3-15,83,71,60,66,62,56,90,74,48,30.17,30.06,4,0,13,0.47
2012-3-16,80,71,62,67,63,59,93,77,56,30.16,30.05,3,0,12,0.01
2012-3-17,82,72,63,66,61,56,88,71,42,30.16,30.05,3,0,13,0.01
2012-3-18,82,70,58,65,60,54,90,71,43,30.17,30.06,4,0,17,0.00
2012-3-19,84,71,60,64,60,56,90,69,41,30.11,29.98,2,0,15,0.00
2012-3-20,84,73,64,65,61,58,84,67,42,30.03,29.93,2,0,16,0.01
2012-3-21,84,74,65,69,64,60,89,71,45,30.07,29.94,3,0,17,0.10
2012-3-22,84,75,68,71,67,64,91,77,55,30.08,29.98,3,0,17,0.00
2012-3-23,82,75,70,70,66,64,85,75,61,30.05,29.94,2,0,12,0.01
2012-3-24,82,74,67,70,65,62,92,76,55,29.96,29.84,1,0,15,0.03
2012-3-25,78,73,70,68,61,52,86,67,45,29.86,29.78,5,1,16,0.01
2012-3-26,79,70,59,62,56,52,86,64,39,29.96,29.82,3,0,13,0.00
2012-3-27,83,70,57,60,56,51,87,63,37,30.10,29.93,2,0,11,0.01
2012-3-28,83,73,63,65,60,55,84,66,42,30.11,29.98,3,0,15,0.00
2012-3-29,81,73,64,67,62,60,90,72,53,30.00,29.91,1,0,9,0.00
2012-3-30,84,73,63,68,62,56,91,70,48,29.98,29.90,2,0,13,0.00
2012-3-31,83,72,64,70,64,56,87,77,63,29.91,29.82,2,0,21,0.29
2012-4-1,80,74,67,68,65,62,87,76,65,29.89,29.80,3,0,14,0.00
2012-4-2,81,71,63,70,64,60,93,78,60,29.87,29.77,2,0,10,0.01
2012-4-3,85,73,62,69,64,59,93,75,55,29.91,29.82,1,0,10,0.00
2012-4-4,86,73,63,70,65,60,93,77,55,29.89,29.75,0,0,9,0.18
2012-4-5,81,73,66,70,66,62,92,78,63,29.78,29.68,1,0,11,0.05
2012-4-6,80,74,68,69,62,55,81,68,47,29.89,29.66,7,1,20,0.00
2012-4-7,82,70,58,58,53,50,79,58,35,30.07,29.89,2,0,14,0.00
2012-4-8,80,69,59,56,53,50,73,57,38,30.11,30.00,4,1,16,0.00
2012-4-9,82,70,57,62,57,51,85,66,41,30.03,29.92,3,0,13,0.00
2012-4-10,84,72,59,64,59,54,86,66,45,30.00,29.91,1,0,12,0.00
2012-4-11,81,73,67,64,62,58,82,68,54,29.99,29.92,3,0,14,0.00
2012-4-12,82,73,65,64,52,42,77,50,28,30.00,29.91,2,0,15,0.00
2012-4-13,83,72,63,66,61,55,85,68,51,30.05,29.94,4,0,13,0.00
2012-4-14,83,74,65,66,61,58,86,65,47,30.14,30.02,4,1,19,0.00
2012-4-15,86,76,68,63,60,56,76,60,38,30.13,30.06,4,1,18,0.00
2012-4-16,86,76,65,63,59,55,81,58,37,30.13,30.03,4,0,19,0.00
2012-4-17,86,76,66,62,59,54,81,58,34,30.08,29.97,1,0,15,0.00
2012-4-18,85,76,69,66,63,61,76,64,47,30.00,29.88,2,0,13,0.00
2012-4-19,85,76,70,72,68,64,88,77,59,29.91,29.80,1,0,13,0.08
2012-4-20,86,76,66,73,67,63,93,76,57,29.84,29.75,0,0,10,0.00
2012-4-21,81,72,65,69,65,61,87,80,60,29.79,29.52,3,0,23,0.89
2012-4-22,76,68,60,67,61,50,94,79,47,29.69,29.44,6,1,20,0.43
2012-4-23,73,69,64,49,47,44,52,45,40,29.83,29.68,5,2,24,0.00
2012-4-24,72,64,54,45,40,32,55,42,30,29.96,29.82,3,1,16,0.00
2012-4-25,80,65,50,57,49,41,83,58,38,30.04,29.93,2,0,10,0.00
2012-4-26,83,69,56,65,58,50,89,68,51,30.08,29.98,0,0,13,0.00
2012-4-27,84,70,59,66,60,55,91,71,45,30.05,29.97,3,0,15,0.00
2012-4-28,88,74,62,72,65,57,90,73,56,30.02,29.94,3,0,14,0.04
2012-4-29,89,78,67,70,65,58,90,67,38,30.02,29.93,1,0,11,0.01
2012-4-30,89,79,69,68,64,61,87,62,39,30.03,29.92,1,0,17,0.00
2012-5-1,91,79,70,69,65,61,86,64,40,30.00,29.88,2,0,20,0.00
2012-5-2,92,80,72,70,67,63,84,67,41,30.00,29.92,3,1,18,0.03
2012-5-3,90,79,71,70,68,64,87,69,45,30.02,29.95,3,0,16,0.00
2012-5-4,90,80,73,71,68,65,82,68,48,30.02,29.92,2,0,15,0.00
2012-5-5,90,79,68,72,68,64,89,72,54,29.94,29.86,1,0,12,0.00
2012-5-6,89,78,69,72,68,64,90,71,51,29.91,29.83,0,0,10,0.00
2012-5-7,87,78,68,72,67,64,89,71,54,29.85,29.78,2,0,13,0.00
2012-5-8,88,78,67,71,67,63,90,70,51,29.84,29.77,1,0,11,0.00
2012-5-9,90,78,70,74,70,66,90,76,55,29.82,29.71,1,0,12,0.12
2012-5-10,84,77,70,70,63,56,81,64,39,29.85,29.70,3,0,13,0.00
2012-5-11,93,78,63,68,60,55,88,59,31,30.04,29.83,2,0,15,0.00
2012-5-12,94,80,70,68,62,57,74,56,37,30.08,29.98,2,0,17,0.00
2012-5-13,87,78,72,68,65,60,76,64,48,30.05,29.94,2,0,16,0.00
2012-5-14,89,80,73,73,70,67,87,73,57,29.97,29.88,1,0,9,0.01
2012-5-15,92,80,71,73,69,66,88,70,47,29.94,29.86,2,0,12,0.00
2012-5-16,79,74,70,74,69,67,90,84,75,29.95,29.85,3,0,12,0.90
2012-5-17,86,77,69,72,68,64,94,75,53,29.86,29.79,3,0,14,0.01
2012-5-18,88,77,67,71,67,63,90,72,54,29.87,29.80,3,1,15,0.00
2012-5-19,89,78,68,70,66,63,88,68,48,29.93,29.82,5,1,16,0.00
2012-5-20,88,77,68,67,61,54,84,61,33,29.93,29.85,5,1,18,0.00
2012-5-21,88,77,63,66,60,57,84,59,37,29.93,29.85,3,0,14,0.00
2012-5-22,91,78,66,70,66,60,87,67,49,29.89,29.81,1,0,12,0.00
2012-5-23,92,79,67,72,67,61,90,68,37,29.85,29.76,3,0,13,0.00
2012-5-24,94,80,72,73,69,66,87,71,42,29.85,29.74,4,0,17,0.24
2012-5-25,93,81,70,75,71,65,92,73,49,29.97,29.83,2,0,13,0.00
2012-5-26,91,81,70,72,68,64,86,65,45,29.99,29.88,3,0,15,0.00
2012-5-27,91,81,72,77,71,67,87,72,56,29.91,29.77,2,0,17,0.51
2012-5-28,88,82,75,77,74,69,88,78,68,29.83,29.74,1,0,17,0.29
2012-5-29,81,79,75,76,73,70,87,82,77,29.88,29.78,3,0,16,0.25
2012-5-30,91,83,78,77,75,72,87,77,62,29.83,29.76,1,0,11,0.00
2012-5-31,91,82,76,76,73,69,88,73,57,29.85,29.78,0,0,13,0.00
2012-6-1,83,78,73,74,71,69,91,81,70,29.88,29.76,1,0,15,1.67
2012-6-2,90,80,72,75,71,67,90,75,58,29.91,29.80,2,0,13,0.04
2012-6-3,91,80,69,74,67,63,90,68,46,29.97,29.87,2,0,11,0.00
2012-6-4,90,80,70,75,71,64,87,73,61,29.91,29.77,2,0,12,0.00
2012-6-5,86,80,76,76,72,69,84,77,70,29.81,29.72,1,0,17,0.28
2012-6-6,82,78,75,76,71,68,87,79,66,29.84,29.75,2,0,21,0.02
2012-6-7,80,77,75,77,73,70,93,90,84,29.88,29.82,3,0,13,1.08
2012-6-8,83,76,72,79,73,70,95,90,79,29.89,29.80,4,0,13,0.46
2012-6-9,90,80,72,77,73,69,94,82,63,29.95,29.80,2,0,13,0.01
2012-6-10,95,84,76,78,74,69,90,73,50,30.06,29.89,1,0,15,0.01
2012-6-11,96,84,74,74,72,69,85,68,46,30.04,29.96,2,0,11,0.00
2012-6-12,94,84,74,75,72,68,83,69,53,30.01,29.88,1,0,13,0.00
2012-6-13,91,84,77,76,73,70,85,72,59,29.91,29.82,3,0,13,0.00
2012-6-14,92,83,75,76,72,65,84,70,51,29.93,29.82,3,0,14,0.01
2012-6-15,90,80,72,74,69,66,88,71,52,29.97,29.87,4,0,18,0.00
2012-6-16,94,82,72,71,66,60,87,61,33,29.97,29.89,1,0,16,0.00
2012-6-17,92,82,71,69,64,60,85,58,36,29.99,29.85,1,0,17,0.00
2012-6-18,92,81,69,68,64,58,80,57,35,29.98,29.88,1,0,17,0.00
2012-6-19,90,80,70,69,64,60,81,59,38,29.99,29.91,1,0,14,0.00
2012-6-20,91,78,72,75,69,63,90,74,54,29.97,29.86,1,0,22,0.44
2012-6-21,93,80,75,75,73,71,93,80,53,29.91,29.78,2,0,13,0.52
2012-6-22,91,81,76,77,74,70,93,80,60,29.83,29.75,2,0,14,0.05
2012-6-23,80,78,75,76,74,72,93,88,81,29.86,29.77,2,0,15,0.19
2012-6-24,78,77,75,78,75,74,100,95,92,29.83,29.58,6,2,27,9.07
2012-6-25,85,79,76,78,76,74,97,89,79,29.60,29.51,6,4,35,0.47
2012-6-26,84,80,77,77,75,73,90,85,75,29.55,29.46,5,2,26,0.24
2012-6-27,86,79,74,74,71,69,90,77,62,29.94,29.52,10,2,23,0.04
2012-6-28,91,81,72,71,66,63,82,63,43,30.01,29.92,5,1,13,0.00
2012-6-29,90,80,69,74,68,64,87,69,52,29.98,29.88,2,0,10,0.00
2012-6-30,91,81,73,73,70,67,86,69,52,29.94,29.85,2,0,11,0.00
2012-7-1,92,84,76,77,73,70,87,72,57,30.01,29.89,1,0,12,0.00
2012-7-2,93,83,76,78,74,71,89,74,56,30.03,29.94,1,0,12,0.00
2012-7-3,93,84,76,77,72,70,89,71,52,30.01,29.91,2,0,11,0.00
2012-7-4,93,83,75,75,72,70,88,71,50,30.02,29.93,3,0,12,0.00
2012-7-5,93,82,74,76,71,69,88,70,49,30.00,29.89,1,0,9,0.00
2012-7-6,94,83,75,78,73,70,88,72,54,29.97,29.91,1,0,9,0.00
2012-7-7,95,84,76,77,73,69,89,70,49,30.00,29.94,4,0,16,0.00
2012-7-8,95,84,75,77,72,68,86,68,48,30.02,29.92,6,1,16,0.00
2012-7-9,93,82,76,76,72,67,85,73,55,29.99,29.88,5,0,18,0.01
2012-7-10,94,82,75,76,71,69,85,72,52,29.97,29.89,1,0,13,0.03
2012-7-11,94,79,73,76,72,68,91,80,51,29.98,29.88,2,0,11,2.03
2012-7-12,88,78,73,76,73,70,94,84,63,29.95,29.87,2,0,14,0.75
2012-7-13,92,82,75,78,74,71,93,79,57,29.99,29.88,3,0,18,0.50
2012-7-14,92,82,74,77,72,70,92,75,50,30.01,29.92,2,0,16,0.32
2012-7-15,92,80,74,77,72,69,92,79,55,30.03,29.95,1,0,10,0.28
2012-7-16,92,82,74,77,74,70,93,77,56,30.00,29.88,1,0,10,0.01
2012-7-17,90,80,74,78,73,69,89,80,64,29.96,29.87,0,0,14,0.39
2012-7-18,82,76,73,77,73,70,94,89,83,30.05,29.90,1,0,11,1.81
2012-7-19,92,82,75,80,76,72,95,81,62,30.09,30.01,0,0,9,0.01
2012-7-20,94,84,75,79,74,71,92,75,56,30.04,29.97,1,0,12,0.00
2012-7-21,96,84,72,79,74,65,89,74,49,30.08,29.95,4,0,27,0.84
2012-7-22,94,80,74,79,73,70,93,81,52,30.07,29.94,6,0,26,0.26
2012-7-23,86,79,74,78,73,71,93,83,68,30.06,30.01,1,0,13,0.00
2012-7-24,88,82,77,79,74,71,89,78,64,30.06,29.95,1,0,10,0.11
2012-7-25,92,84,78,78,75,73,86,74,60,29.96,29.91,0,0,11,0.00
2012-7-26,93,84,76,77,74,71,89,73,58,29.97,29.89,0,0,12,0.00
2012-7-27,93,84,76,79,74,71,90,75,57,30.01,29.91,2,0,11,0.13
2012-7-28,93,84,75,78,74,71,90,73,55,30.03,29.94,1,0,12,0.00
2012-7-29,93,84,75,78,74,71,90,73,56,30.00,29.91,0,0,10,0.00
2012-7-30,91,81,76,77,74,72,85,78,62,29.98,29.90,1,0,11,0.29
2012-7-31,93,82,75,79,74,71,92,79,60,29.95,29.89,5,0,16,0.10
2012-8-1,93,84,76,78,74,72,90,75,55,29.93,29.85,1,0,11,0.00
2012-8-2,92,83,75,79,74,70,89,74,56,29.92,29.84,1,0,10,0.19
2012-8-3,94,82,74,78,72,68,91,73,51,29.95,29.85,2,0,13,0.00
2012-8-4,93,83,74,75,72,68,88,70,53,29.97,29.89,5,1,15,0.00
2012-8-5,93,82,77,78,74,71,87,76,55,30.03,29.91,2,0,11,0.44
2012-8-6,94,82,76,79,74,72,92,78,54,30.00,29.89,2,0,13,0.00
2012-8-7,92,83,77,79,75,72,89,77,61,29.96,29.88,2,0,11,0.00
2012-8-8,95,85,77,80,75,72,90,74,55,29.97,29.89,1,0,7,0.00
2012-8-9,96,85,75,77,74,70,87,70,54,29.95,29.85,1,0,11,0.00
2012-8-10,93,83,77,79,74,68,88,73,57,29.91,29.83,1,0,11,0.00
2012-8-11,92,83,76,78,73,71,88,73,58,29.93,29.84,3,0,14,0.00
2012-8-12,91,82,76,79,74,71,88,77,61,29.96,29.88,3,0,13,0.36
2012-8-13,92,84,76,79,74,72,90,74,55,30.00,29.92,2,0,11,0.00
2012-8-14,95,84,76,79,74,71,90,72,52,29.97,29.89,1,0,14,0.00
2012-8-15,94,85,76,78,74,70,87,70,53,29.97,29.88,1,0,11,0.00
2012-8-16,96,86,77,77,73,71,88,68,49,30.00,29.90,2,0,14,0.00
2012-8-17,87,81,77,79,74,71,89,80,74,29.96,29.86,2,0,13,0.63
2012-8-18,84,78,74,78,74,70,93,88,82,29.96,29.82,2,0,10,0.70
2012-8-19,91,83,76,80,75,70,94,79,62,29.92,29.84,4,0,19,0.04
2012-8-20,92,83,77,79,75,72,92,78,60,29.93,29.82,3,0,18,1.26
2012-8-21,90,80,74,80,74,70,94,84,67,30.00,29.86,4,0,15,0.63
2012-8-22,85,76,74,79,73,70,94,90,75,30.02,29.91,3,0,16,0.68
2012-8-23,88,80,74,77,72,68,95,79,60,30.03,29.94,3,0,16,0.00
2012-8-24,91,82,73,74,71,67,88,71,54,29.98,29.86,1,0,10,0.00
2012-8-25,91,80,74,75,71,69,89,76,54,29.94,29.86,1,0,13,0.57
2012-8-26,85,78,74,76,74,70,91,85,71,29.92,29.74,3,1,20,0.51
2012-8-27,84,79,76,78,76,74,94,91,82,29.75,29.63,6,1,26,1.14
2012-8-28,90,83,79,79,76,75,91,80,65,29.88,29.75,5,2,23,0.00
2012-8-29,89,83,78,78,75,72,89,78,62,29.89,29.81,2,1,17,0.00
2012-8-30,92,83,77,78,75,71,90,76,59,30.04,29.87,0,0,9,0.00
2012-8-31,91,84,77,77,74,70,90,74,54,30.09,30.00,1,0,10,0.00
2012-9-1,91,84,77,77,74,72,90,74,57,30.08,29.95,2,0,14,0.00
2012-9-2,90,81,74,74,71,69,90,73,51,30.00,29.91,1,0,13,0.00
2012-9-3,90,82,73,74,71,68,89,72,53,29.97,29.89,1,0,10,0.00
2012-9-4,89,81,74,76,71,68,91,73,57,29.93,29.86,1,0,11,0.00
2012-9-5,89,80,72,76,72,68,92,75,61,29.91,29.84,1,0,12,0.00
2012-9-6,88,80,75,78,74,69,92,80,69,29.94,29.85,1,0,13,0.24
2012-9-7,88,80,76,78,74,70,91,82,67,29.91,29.82,0,0,9,0.30
2012-9-8,87,80,74,78,74,70,93,82,69,29.87,29.78,1,0,14,0.03
2012-9-9,82,79,73,78,75,70,95,88,78,29.89,29.76,1,0,13,2.25
2012-9-10,86,80,74,79,74,68,95,82,61,29.94,29.83,2,0,12,1.10
2012-9-11,89,81,74,74,71,66,89,72,55,30.05,29.92,1,0,13,0.00
2012-9-12,89,80,72,73,68,65,82,68,52,30.04,29.97,1,0,13,0.05
2012-9-13,90,80,74,73,70,68,87,72,49,30.02,29.92,1,0,11,0.06
2012-9-14,90,82,74,74,71,68,88,71,54,29.99,29.89,1,0,11,0.03
2012-9-15,89,81,75,73,71,69,88,74,54,29.99,29.91,1,0,11,0.07
2012-9-16,88,79,75,75,72,69,91,80,59,29.97,29.88,3,0,12,0.03
2012-9-17,89,80,74,75,72,70,91,77,59,29.93,29.81,3,1,15,0.02
2012-9-18,82,78,76,79,75,74,93,89,82,29.86,29.78,1,0,17,0.43
2012-9-19,86,80,75,78,74,71,93,82,68,29.96,29.82,1,0,10,0.09
2012-9-20,86,80,76,77,73,68,92,80,66,29.95,29.86,1,0,10,0.01
2012-9-21,86,78,74,74,71,68,89,79,67,29.94,29.84,4,0,14,0.54
2012-9-22,86,78,71,73,70,68,93,78,61,29.95,29.86,3,0,13,0.02
2012-9-23,88,79,71,75,69,56,93,72,49,30.00,29.92,4,1,15,0.04
2012-9-24,85,77,71,61,56,52,68,49,33,30.04,29.94,3,0,13,0.00
2012-9-25,84,75,66,69,63,58,83,67,44,30.02,29.95,1,0,10,0.00
2012-9-26,86,78,69,73,68,65,91,73,52,30.03,29.95,2,0,10,0.00
2012-9-27,89,80,72,75,70,68,90,73,57,30.03,29.93,4,0,13,0.00
2012-9-28,87,79,73,74,71,68,90,77,59,29.99,29.86,3,0,13,0.00
2012-9-29,88,80,74,76,72,70,92,79,62,29.92,29.78,1,0,10,0.02
2012-9-30,87,80,74,77,72,70,92,79,62,29.82,29.70,0,0,11,0.00
2012-10-1,87,80,75,76,73,70,91,78,62,29.72,29.64,2,0,13,0.02
2012-10-2,86,80,76,77,73,70,89,79,66,29.94,29.70,1,0,16,0.03
2012-10-3,81,76,74,77,73,72,94,90,82,30.06,29.91,1,0,11,1.15
2012-10-4,88,78,72,78,73,68,95,85,66,30.09,30.00,3,0,17,0.32
2012-10-5,87,78,72,77,72,68,94,84,68,30.04,29.88,1,0,10,0.17
2012-10-6,85,78,74,79,73,69,94,84,73,29.92,29.79,2,0,12,0.01
2012-10-7,87,78,72,76,71,66,93,78,63,29.91,29.83,3,0,12,0.02
2012-10-8,85,77,72,76,71,68,91,82,70,29.94,29.86,2,0,11,0.00
2012-10-9,84,77,71,74,71,68,94,82,67,29.97,29.89,2,0,11,0.00
2012-10-10,82,75,69,71,67,63,90,76,56,30.03,29.95,5,1,14,0.00
2012-10-11,84,74,65,68,64,60,91,72,51,30.08,30.00,2,0,12,0.00
2012-10-12,84,74,65,66,63,60,85,68,46,30.11,30.02,3,0,15,0.00
2012-10-13,85,75,66,67,63,60,87,67,48,30.10,30.00,2,0,13,0.00
2012-10-14,86,77,68,70,67,63,87,71,52,30.04,29.91,3,0,12,0.00
2012-10-15,85,77,71,75,70,66,90,80,68,29.91,29.75,4,1,14,0.00
2012-10-16,82,74,66,68,64,57,93,73,54,29.80,29.72,4,1,14,0.00
2012-10-17,78,71,65,69,65,57,86,79,72,29.82,29.72,0,0,5,0.02
2012-10-18,83,74,66,72,67,63,94,82,67,29.80,29.71,1,0,7,0.02
2012-10-19,83,75,66,74,68,63,95,82,70,29.81,29.73,4,0,11,0.02
2012-10-20,80,73,62,72,59,51,88,63,44,29.89,29.77,3,1,14,0.00
2012-10-21,80,68,56,57,52,49,81,59,35,29.98,29.88,2,0,13,0.00
2012-10-22,84,73,64,64,60,56,79,63,45,30.00,29.89,1,0,14,0.00
2012-10-23,84,74,64,65,62,58,84,66,49,29.99,29.88,3,0,14,0.00
2012-10-24,85,76,68,70,65,61,86,70,48,29.94,29.81,2,0,14,0.00
2012-10-25,84,76,71,71,67,64,84,73,53,29.86,29.72,3,1,18,0.00
2012-10-26,83,77,72,70,67,62,84,72,57,29.74,29.58,6,3,25,0.00
2012-10-27,76,74,72,66,63,60,75,69,64,29.65,29.54,7,4,25,0.00
2012-10-28,74,70,64,66,59,51,78,68,57,29.74,29.63,6,2,23,0.00
2012-10-29,64,63,59,51,47,43,68,58,47,29.80,29.70,6,4,23,0.00
2012-10-30,65,62,58,49,44,41,59,51,42,29.87,29.75,5,2,22,0.00
2012-10-31,69,64,58,52,50,46,79,60,50,29.97,29.87,4,1,15,0.00
2012-11-1,75,66,58,67,59,52,90,80,65,29.95,29.87,0,0,5,0.03
2012-11-2,72,62,53,62,53,47,95,74,42,30.00,29.93,2,0,10,0.02
2012-11-3,76,65,56,69,60,51,95,83,74,30.05,29.96,2,0,11,0.03
2012-11-4,75,68,62,68,63,59,94,85,68,30.03,29.93,0,0,5,0.00
2012-11-5,74,67,61,66,60,56,95,79,57,29.92,29.84,2,0,12,0.00
2012-11-6,73,66,59,67,60,51,93,81,64,29.84,29.74,2,0,11,0.05
2012-11-7,65,62,59,56,50,44,76,66,52,29.92,29.78,8,3,21,0.00
2012-11-8,62,55,48,46,42,39,77,60,46,30.08,29.90,5,1,15,0.00
2012-11-9,69,56,42,48,43,38,88,64,34,30.17,30.07,1,0,11,0.02
2012-11-10,75,63,50,52,48,42,81,61,43,30.21,30.11,1,0,12,0.00
2012-11-11,77,62,55,61,53,49,85,74,55,30.19,30.13,1,0,10,0.00
2012-11-12,81,70,62,67,62,58,89,76,53,30.14,30.05,2,0,14,0.03
2012-11-13,77,70,64,68,64,61,91,82,68,30.10,30.01,2,0,11,0.02
2012-11-14,74,68,63,66,63,60,93,84,72,30.10,30.00,1,0,11,0.04
2012-11-15,70,66,60,63,61,56,90,84,75,30.07,29.99,2,0,12,0.00
2012-11-16,60,59,58,56,56,55,91,89,87,30.09,30.03,1,0,9,0.13
2012-11-17,74,65,59,63,58,54,88,78,64,30.07,29.98,4,1,14,0.00
2012-11-18,71,64,56,58,56,50,87,77,61,30.10,30.02,3,0,15,0.00
2012-11-19,65,59,51,57,53,47,89,80,74,30.08,29.97,5,1,14,0.03
2012-11-20,67,62,58,58,56,52,86,78,70,30.02,29.90,6,2,17,0.00
2012-11-21,69,62,54,57,54,51,91,77,61,30.01,29.92,6,1,17,0.01
2012-11-22,70,58,49,52,44,36,85,62,29,30.09,29.99,5,1,17,0.00
2012-11-23,67,53,40,46,40,33,81,62,40,30.13,30.00,3,0,12,0.00
2012-11-24,67,57,48,62,49,42,94,76,60,30.02,29.94,7,1,17,0.05
2012-11-25,63,52,41,42,35,31,78,56,30,30.08,29.99,4,0,13,0.00
2012-11-26,72,56,42,57,46,35,85,69,53,30.12,30.03,1,0,9,0.00
2012-11-27,76,65,54,65,57,46,90,77,62,30.09,30.00,1,0,12,0.07
2012-11-28,68,64,58,62,58,52,91,82,70,30.18,30.02,5,1,17,0.03
2012-11-29,76,64,53,59,53,49,86,69,49,30.18,30.10,2,0,13,0.00
2012-11-30,76,65,57,58,54,51,84,69,48,30.16,30.07,1,0,11,0.02
2012-12-1,77,66,56,61,55,50,87,70,50,30.16,30.08,1,0,13,0.01
2012-12-2,78,67,60,64,58,54,89,75,47,30.19,30.09,1,0,10,0.02
2012-12-3,78,68,63,65,61,56,89,78,57,30.19,30.09,1,0,10,0.02
2012-12-4,75,65,57,60,55,50,91,71,41,30.19,30.08,1,0,11,0.01
2012-12-5,75,66,56,62,57,51,87,74,59,30.11,29.94,2,0,15,0.01
2012-12-6,77,69,63,63,60,59,89,75,56,29.96,29.83,1,0,7,0.00
2012-12-7,74,66,62,66,61,58,90,84,75,29.93,29.83,1,0,7,0.03
2012-12-8,77,69,63,69,64,60,94,86,73,29.96,29.86,1,0,11,0.00
2012-12-9,72,66,61,68,63,58,93,89,84,30.00,29.91,2,0,7,0.06
2012-12-10,78,69,59,73,66,57,96,91,86,29.93,29.75,3,1,18,0.46
2012-12-11,78,72,67,74,70,65,96,91,84,29.93,29.78,2,0,14,0.03
2012-12-12,79,72,68,73,69,65,94,89,80,30.00,29.88,3,0,16,0.09
2012-12-13,68,63,55,65,58,50,93,82,72,30.11,29.99,5,2,17,0.06
2012-12-14,65,58,54,56,52,49,89,83,71,30.13,30.02,4,1,13,0.01
2012-12-15,74,62,54,65,58,51,94,85,69,30.05,29.95,1,0,10,0.04
2012-12-16,77,66,58,67,60,56,95,82,61,29.96,29.86,2,0,10,0.07
2012-12-17,77,69,60,68,64,56,94,85,70,29.89,29.79,2,0,15,0.01
2012-12-18,74,67,52,70,62,46,94,83,68,29.94,29.79,6,1,16,0.03
2012-12-19,71,57,47,52,47,43,90,71,41,30.01,29.93,1,0,7,0.03
2012-12-20,78,67,50,69,61,45,93,82,69,29.97,29.84,4,1,23,0.61
2012-12-21,67,57,54,62,42,35,84,58,47,30.12,29.90,5,3,23,0.05
2012-12-22,55,50,39,38,34,30,76,55,39,30.21,30.11,7,2,20,0.00
2012-12-23,61,49,37,41,36,31,84,63,33,30.16,30.03,1,0,7,0.00
2012-12-24,68,58,47,59,51,38,86,76,65,30.03,29.86,2,0,13,0.10
2012-12-25,74,64,56,64,58,53,92,79,65,29.91,29.77,3,0,14,0.08
2012-12-26,77,65,55,70,59,46,90,79,69,29.91,29.71,4,2,20,0.13
2012-12-27,55,50,42,46,43,38,84,76,69,30.02,29.91,5,1,14,0.00
2012-12-28,68,56,40,63,49,36,91,79,53,29.99,29.80,2,0,11,0.52
2012-12-29,72,65,53,71,61,44,95,86,71,30.09,29.76,7,2,23,0.22
2012-12-30,56,48,40,44,35,30,74,62,45,30.27,30.09,6,2,23,0.01
2012-12-31,69,55,42,55,46,36,86,74,61,30.25,30.10,3,0,12,0.01
2013-1-1,73,63,52,61,54,47,92,75,60,30.11,29.94,3,0,18,0.01